SKCL/CLO METAR and TAF weather

Enter ICAO airport designator
Station Type Date Time Source
SKCL METAR 2018/12/10 14:00 UTC NOAA

SKCL 101400Z 17004KT 9000 FEW023 SCT300 23/20 A3006 RMK HZ


Station Type Date Time Source
SKCL Decoded METAR 2018/12/10 14:00 UTC NOAA

Cali / Alfonso Bonillaaragon, Colombia (SKCL) 03-33N 076-23W 969M
Dec 10, 2018 - 09:00 AM EST / 2018.12.10 1400 UTC
Wind: from the S (170 degrees) at 5 MPH (4 KT):0
Visibility: 5 mile(s):0
Sky conditions: partly cloudy
Temperature: 73 F (23 C)
Dew Point: 68 F (20 C)
Relative Humidity: 83%
Pressure (altimeter): 30.06 in. Hg (1017 hPa)
ob: SKCL 101400Z 17004KT 9000 FEW023 SCT300 23/20 A3006 RMK HZ
cycle: 14

Station Type Date Time Source
SKCL TAF 2018/12/10 12:43 UTC NOAA

TAF SKCL 101100Z 1012/1112 01009KT 9999 FEW030 BKN120
BECMG 1016/1018 33012KT TX31/1019Z TN19/1111Z


Example: see airport list